Sieper, Louisiana
Current Conditions -  °F | °C
As of 2:53 AM on Saturday 22 Nov 2014 (Local Time) from KAEX Reporting Station
Overcast Overcast  
Wind Chill: 59°   Ceiling: 10000
Heat Index: 59°   Visibility: 10mi
Dew Point: 50°   Wind: 9mph
Humidity: 72%   Direction: 130°SE
Pressure: 30.21"   Gusts: NA
Location:  31.21°N, 92.81°W
Report Text: KAEX 220853Z AUTO 13008KT 10SM OVC100 15/10 A3021 RMK AO2 SLP232 60000 T01500100 55010
Loading
Personal Weather Stations






























Interactive Weather Map New forecast layout! Learn more

10-Day Weather Forecast

Advertisements
Track Severe Weather on mobile